sensor_id;sensor_type;location;lat;lon;timestamp;temperature;humidity
63260;DHT22;49390;51.380;0.098;2023-07-13T00:01:16;17.20;99.90
63260;DHT22;49390;51.380;0.098;2023-07-13T00:03:44;17.20;99.90
63260;DHT22;49390;51.380;0.098;2023-07-13T00:06:12;17.20;99.90
63260;DHT22;49390;51.380;0.098;2023-07-13T00:08:43;17.20;99.90
63260;DHT22;49390;51.380;0.098;2023-07-13T00:11:11;17.20;99.90
63260;DHT22;49390;51.380;0.098;2023-07-13T00:13:39;17.20;99.90
63260;DHT22;49390;51.380;0.098;2023-07-13T00:16:09;17.20;99.90
63260;DHT22;49390;51.380;0.098;2023-07-13T00:18:38;17.10;99.90
63260;DHT22;49390;51.380;0.098;2023-07-13T00:21:06;17.10;99.90
63260;DHT22;49390;51.380;0.098;2023-07-13T00:23:36;17.10;99.90
63260;DHT22;49390;51.380;0.098;2023-07-13T00:26:47;17.10;99.90
63260;DHT22;49390;51.380;0.098;2023-07-13T00:29:40;17.00;99.90
63260;DHT22;49390;51.380;0.098;2023-07-13T00:32:08;17.00;99.90
63260;DHT22;49390;51.380;0.098;2023-07-13T00:34:38;17.00;99.90
63260;DHT22;49390;51.380;0.098;2023-07-13T00:37:07;17.00;99.90
63260;DHT22;49390;51.380;0.098;2023-07-13T00:39:35;17.00;99.90
63260;DHT22;49390;51.380;0.098;2023-07-13T00:42:04;17.00;99.90
63260;DHT22;49390;51.380;0.098;2023-07-13T00:44:32;17.00;99.90
63260;DHT22;49390;51.380;0.098;2023-07-13T00:47:00;16.90;99.90
63260;DHT22;49390;51.380;0.098;2023-07-13T00:49:30;16.90;99.90
63260;DHT22;49390;51.380;0.098;2023-07-13T00:52:03;16.90;99.90
63260;DHT22;49390;51.380;0.098;2023-07-13T00:54:44;16.90;99.90
63260;DHT22;49390;51.380;0.098;2023-07-13T00:57:17;16.80;99.90
63260;DHT22;49390;51.380;0.098;2023-07-13T00:59:55;16.80;99.90
63260;DHT22;49390;51.380;0.098;2023-07-13T01:02:27;16.80;99.90
63260;DHT22;49390;51.380;0.098;2023-07-13T01:04:56;16.80;99.90
63260;DHT22;49390;51.380;0.098;2023-07-13T01:07:25;16.80;99.90
63260;DHT22;49390;51.380;0.098;2023-07-13T01:09:53;16.70;99.90
63260;DHT22;49390;51.380;0.098;2023-07-13T01:12:21;16.80;99.90
63260;DHT22;49390;51.380;0.098;2023-07-13T01:14:57;16.70;99.90
63260;DHT22;49390;51.380;0.098;2023-07-13T01:17:25;16.70;99.90
63260;DHT22;49390;51.380;0.098;2023-07-13T01:19:54;16.70;99.90
63260;DHT22;49390;51.380;0.098;2023-07-13T01:22:23;16.70;99.90
63260;DHT22;49390;51.380;0.098;2023-07-13T01:24:54;16.60;99.90
63260;DHT22;49390;51.380;0.098;2023-07-13T01:27:25;16.60;99.90
63260;DHT22;49390;51.380;0.098;2023-07-13T01:29:53;16.50;99.90
63260;DHT22;49390;51.380;0.098;2023-07-13T01:32:35;16.50;99.90
63260;DHT22;49390;51.380;0.098;2023-07-13T01:35:04;16.50;99.90
63260;DHT22;49390;51.380;0.098;2023-07-13T01:37:32;16.50;99.90
63260;DHT22;49390;51.380;0.098;2023-07-13T01:40:01;16.50;99.90
63260;DHT22;49390;51.380;0.098;2023-07-13T01:42:31;16.50;99.90
63260;DHT22;49390;51.380;0.098;2023-07-13T01:44:59;16.50;99.90
63260;DHT22;49390;51.380;0.098;2023-07-13T01:47:27;16.50;99.90
63260;DHT22;49390;51.380;0.098;2023-07-13T01:49:57;16.40;99.90
63260;DHT22;49390;51.380;0.098;2023-07-13T01:52:26;16.40;99.90
63260;DHT22;49390;51.380;0.098;2023-07-13T01:54:53;16.40;99.90
63260;DHT22;49390;51.380;0.098;2023-07-13T01:59:45;16.30;99.90
63260;DHT22;49390;51.380;0.098;2023-07-13T02:02:13;16.30;99.90
63260;DHT22;49390;51.380;0.098;2023-07-13T02:04:41;16.30;99.90
63260;DHT22;49390;51.380;0.098;2023-07-13T02:07:09;16.30;99.90
63260;DHT22;49390;51.380;0.098;2023-07-13T02:09:37;16.30;99.90
63260;DHT22;49390;51.380;0.098;2023-07-13T02:12:06;16.30;99.90
63260;DHT22;49390;51.380;0.098;2023-07-13T02:14:34;16.20;99.90
63260;DHT22;49390;51.380;0.098;2023-07-13T02:17:02;16.30;99.90
63260;DHT22;49390;51.380;0.098;2023-07-13T02:19:31;16.20;99.90
63260;DHT22;49390;51.380;0.098;2023-07-13T02:21:59;16.20;99.90
63260;DHT22;49390;51.380;0.098;2023-07-13T02:24:27;16.20;99.90
63260;DHT22;49390;51.380;0.098;2023-07-13T02:26:55;16.20;99.90
63260;DHT22;49390;51.380;0.098;2023-07-13T02:29:23;16.20;99.90
63260;DHT22;49390;51.380;0.098;2023-07-13T02:31:52;16.20;99.90
63260;DHT22;49390;51.380;0.098;2023-07-13T02:34:19;16.20;99.90
63260;DHT22;49390;51.380;0.098;2023-07-13T02:36:47;16.10;99.90
63260;DHT22;49390;51.380;0.098;2023-07-13T02:39:15;16.10;99.90
63260;DHT22;49390;51.380;0.098;2023-07-13T02:41:44;16.10;99.90
63260;DHT22;49390;51.380;0.098;2023-07-13T02:44:14;16.10;99.90
63260;DHT22;49390;51.380;0.098;2023-07-13T02:46:43;16.10;99.90
63260;DHT22;49390;51.380;0.098;2023-07-13T02:49:12;16.10;99.90
63260;DHT22;49390;51.380;0.098;2023-07-13T02:51:40;16.10;99.90
63260;DHT22;49390;51.380;0.098;2023-07-13T02:54:09;16.00;99.90
63260;DHT22;49390;51.380;0.098;2023-07-13T02:56:37;16.00;99.90
63260;DHT22;49390;51.380;0.098;2023-07-13T02:59:06;16.00;99.90
63260;DHT22;49390;51.380;0.098;2023-07-13T03:01:35;16.00;99.90
63260;DHT22;49390;51.380;0.098;2023-07-13T03:04:03;16.00;99.90
63260;DHT22;49390;51.380;0.098;2023-07-13T03:06:35;16.00;99.90
63260;DHT22;49390;51.380;0.098;2023-07-13T03:09:04;16.00;99.90
63260;DHT22;49390;51.380;0.098;2023-07-13T03:11:36;15.90;99.90
63260;DHT22;49390;51.380;0.098;2023-07-13T03:14:20;15.90;99.90
63260;DHT22;49390;51.380;0.098;2023-07-13T03:16:48;15.90;99.90
63260;DHT22;49390;51.380;0.098;2023-07-13T03:19:16;15.90;99.90
63260;DHT22;49390;51.380;0.098;2023-07-13T03:21:49;15.90;99.90
63260;DHT22;49390;51.380;0.098;2023-07-13T03:24:17;15.80;99.90
63260;DHT22;49390;51.380;0.098;2023-07-13T03:26:45;15.80;99.90
63260;DHT22;49390;51.380;0.098;2023-07-13T03:29:13;15.80;99.90
63260;DHT22;49390;51.380;0.098;2023-07-13T03:31:41;15.80;99.90
63260;DHT22;49390;51.380;0.098;2023-07-13T03:34:09;15.80;99.90
63260;DHT22;49390;51.380;0.098;2023-07-13T03:36:38;15.80;99.90
63260;DHT22;49390;51.380;0.098;2023-07-13T03:39:09;15.80;99.90
63260;DHT22;49390;51.380;0.098;2023-07-13T03:41:46;15.80;99.90
63260;DHT22;49390;51.380;0.098;2023-07-13T03:44:18;15.70;99.90
63260;DHT22;49390;51.380;0.098;2023-07-13T03:46:51;15.70;99.90
63260;DHT22;49390;51.380;0.098;2023-07-13T03:49:19;15.70;99.90
63260;DHT22;49390;51.380;0.098;2023-07-13T03:51:47;15.70;99.90
63260;DHT22;49390;51.380;0.098;2023-07-13T03:54:18;15.70;99.90
63260;DHT22;49390;51.380;0.098;2023-07-13T03:56:46;15.70;99.90
63260;DHT22;49390;51.380;0.098;2023-07-13T03:59:16;15.70;99.90
63260;DHT22;49390;51.380;0.098;2023-07-13T04:01:45;15.60;99.90
63260;DHT22;49390;51.380;0.098;2023-07-13T04:04:13;15.60;99.90
63260;DHT22;49390;51.380;0.098;2023-07-13T04:06:41;15.60;99.90
63260;DHT22;49390;51.380;0.098;2023-07-13T04:09:12;15.60;99.90
63260;DHT22;49390;51.380;0.098;2023-07-13T04:11:40;15.60;99.90
63260;DHT22;49390;51.380;0.098;2023-07-13T04:14:08;15.60;99.90
63260;DHT22;49390;51.380;0.098;2023-07-13T04:16:36;15.60;99.90
63260;DHT22;49390;51.380;0.098;2023-07-13T04:19:03;15.60;99.90
63260;DHT22;49390;51.380;0.098;2023-07-13T04:21:32;15.60;99.90
63260;DHT22;49390;51.380;0.098;2023-07-13T04:24:00;15.60;99.90
63260;DHT22;49390;51.380;0.098;2023-07-13T04:26:28;15.60;99.90
63260;DHT22;49390;51.380;0.098;2023-07-13T04:28:57;15.60;99.90
63260;DHT22;49390;51.380;0.098;2023-07-13T04:31:25;15.60;99.90
63260;DHT22;49390;51.380;0.098;2023-07-13T04:33:54;15.60;99.90
63260;DHT22;49390;51.380;0.098;2023-07-13T04:36:22;15.60;99.90
63260;DHT22;49390;51.380;0.098;2023-07-13T04:38:50;15.60;99.90
63260;DHT22;49390;51.380;0.098;2023-07-13T04:41:18;15.60;99.90
63260;DHT22;49390;51.380;0.098;2023-07-13T04:43:46;15.60;99.90
63260;DHT22;49390;51.380;0.098;2023-07-13T04:46:16;15.60;99.90
63260;DHT22;49390;51.380;0.098;2023-07-13T04:48:45;15.60;99.90
63260;DHT22;49390;51.380;0.098;2023-07-13T04:51:13;15.60;99.90
63260;DHT22;49390;51.380;0.098;2023-07-13T04:53:41;15.60;99.90
63260;DHT22;49390;51.380;0.098;2023-07-13T04:56:10;15.60;99.90
63260;DHT22;49390;51.380;0.098;2023-07-13T04:58:38;15.70;99.90
63260;DHT22;49390;51.380;0.098;2023-07-13T05:01:09;15.60;99.90
63260;DHT22;49390;51.380;0.098;2023-07-13T05:03:38;15.70;99.90
63260;DHT22;49390;51.380;0.098;2023-07-13T05:06:08;15.70;99.90
63260;DHT22;49390;51.380;0.098;2023-07-13T05:08:39;15.70;99.90
63260;DHT22;49390;51.380;0.098;2023-07-13T05:11:07;15.80;99.90
63260;DHT22;49390;51.380;0.098;2023-07-13T05:13:35;15.80;99.90
63260;DHT22;49390;51.380;0.098;2023-07-13T05:16:05;15.80;99.90
63260;DHT22;49390;51.380;0.098;2023-07-13T05:18:36;15.80;99.90
63260;DHT22;49390;51.380;0.098;2023-07-13T05:21:10;15.90;99.90
63260;DHT22;49390;51.380;0.098;2023-07-13T05:23:39;15.90;99.90
63260;DHT22;49390;51.380;0.098;2023-07-13T05:26:10;16.00;99.90
63260;DHT22;49390;51.380;0.098;2023-07-13T05:28:38;16.00;99.90
63260;DHT22;49390;51.380;0.098;2023-07-13T05:31:10;16.10;99.90
63260;DHT22;49390;51.380;0.098;2023-07-13T05:33:39;16.10;99.90
63260;DHT22;49390;51.380;0.098;2023-07-13T05:36:07;16.10;99.90
63260;DHT22;49390;51.380;0.098;2023-07-13T05:38:35;16.10;99.90
63260;DHT22;49390;51.380;0.098;2023-07-13T05:41:04;16.20;99.90
63260;DHT22;49390;51.380;0.098;2023-07-13T05:43:33;16.20;99.90
63260;DHT22;49390;51.380;0.098;2023-07-13T05:46:02;16.20;99.90
63260;DHT22;49390;51.380;0.098;2023-07-13T05:48:30;16.20;99.90
63260;DHT22;49390;51.380;0.098;2023-07-13T05:51:00;16.30;99.90
63260;DHT22;49390;51.380;0.098;2023-07-13T05:53:28;16.40;99.90
63260;DHT22;49390;51.380;0.098;2023-07-13T05:55:56;16.40;99.90
63260;DHT22;49390;51.380;0.098;2023-07-13T05:58:28;16.40;99.90
63260;DHT22;49390;51.380;0.098;2023-07-13T06:01:02;16.50;99.90
63260;DHT22;49390;51.380;0.098;2023-07-13T06:03:31;16.50;99.90
63260;DHT22;49390;51.380;0.098;2023-07-13T06:06:00;16.50;99.90
63260;DHT22;49390;51.380;0.098;2023-07-13T06:08:28;16.60;99.90
63260;DHT22;49390;51.380;0.098;2023-07-13T06:11:02;16.60;99.90
63260;DHT22;49390;51.380;0.098;2023-07-13T06:13:31;16.70;99.90
63260;DHT22;49390;51.380;0.098;2023-07-13T06:16:02;16.80;99.90
63260;DHT22;49390;51.380;0.098;2023-07-13T06:18:33;16.90;99.90
63260;DHT22;49390;51.380;0.098;2023-07-13T06:21:22;17.00;99.90
63260;DHT22;49390;51.380;0.098;2023-07-13T06:23:52;17.10;99.90
63260;DHT22;49390;51.380;0.098;2023-07-13T06:26:23;17.30;99.90
63260;DHT22;49390;51.380;0.098;2023-07-13T06:28:51;17.40;99.90
63260;DHT22;49390;51.380;0.098;2023-07-13T06:31:19;17.40;99.90
63260;DHT22;49390;51.380;0.098;2023-07-13T06:33:47;17.50;99.90
63260;DHT22;49390;51.380;0.098;2023-07-13T06:36:15;17.60;99.90
63260;DHT22;49390;51.380;0.098;2023-07-13T06:38:43;17.80;99.90
63260;DHT22;49390;51.380;0.098;2023-07-13T06:41:11;17.90;99.90
63260;DHT22;49390;51.380;0.098;2023-07-13T06:43:40;17.90;99.90
63260;DHT22;49390;51.380;0.098;2023-07-13T06:46:08;18.00;99.90
63260;DHT22;49390;51.380;0.098;2023-07-13T06:48:39;18.10;99.90
63260;DHT22;49390;51.380;0.098;2023-07-13T06:51:08;18.20;99.90
63260;DHT22;49390;51.380;0.098;2023-07-13T06:53:39;18.40;99.90
63260;DHT22;49390;51.380;0.098;2023-07-13T06:56:07;18.70;99.90
63260;DHT22;49390;51.380;0.098;2023-07-13T06:58:35;19.00;99.90
63260;DHT22;49390;51.380;0.098;2023-07-13T07:01:04;19.40;99.90
63260;DHT22;49390;51.380;0.098;2023-07-13T07:03:35;19.90;99.90
63260;DHT22;49390;51.380;0.098;2023-07-13T07:06:17;20.30;99.90
63260;DHT22;49390;51.380;0.098;2023-07-13T07:08:45;20.80;99.90
63260;DHT22;49390;51.380;0.098;2023-07-13T07:11:17;21.20;99.90
63260;DHT22;49390;51.380;0.098;2023-07-13T07:13:46;21.20;99.90
63260;DHT22;49390;51.380;0.098;2023-07-13T07:16:14;21.30;99.90
63260;DHT22;49390;51.380;0.098;2023-07-13T07:18:42;21.40;99.90
63260;DHT22;49390;51.380;0.098;2023-07-13T07:21:11;21.70;99.90
63260;DHT22;49390;51.380;0.098;2023-07-13T07:23:39;21.90;99.90
63260;DHT22;49390;51.380;0.098;2023-07-13T07:26:08;22.10;99.90
63260;DHT22;49390;51.380;0.098;2023-07-13T07:28:37;22.30;98.70
63260;DHT22;49390;51.380;0.098;2023-07-13T07:31:10;22.50;97.60
63260;DHT22;49390;51.380;0.098;2023-07-13T07:33:40;22.70;94.70
63260;DHT22;49390;51.380;0.098;2023-07-13T07:36:08;22.60;94.10
63260;DHT22;49390;51.380;0.098;2023-07-13T07:38:39;22.50;94.60
63260;DHT22;49390;51.380;0.098;2023-07-13T07:41:07;22.60;94.40
63260;DHT22;49390;51.380;0.098;2023-07-13T07:43:38;22.80;93.70
63260;DHT22;49390;51.380;0.098;2023-07-13T07:46:06;23.00;92.60
63260;DHT22;49390;51.380;0.098;2023-07-13T07:48:34;23.20;91.20
63260;DHT22;49390;51.380;0.098;2023-07-13T07:51:02;23.30;90.30
63260;DHT22;49390;51.380;0.098;2023-07-13T07:53:33;23.20;89.30
63260;DHT22;49390;51.380;0.098;2023-07-13T07:56:01;23.10;89.20
63260;DHT22;49390;51.380;0.098;2023-07-13T07:58:49;22.90;88.90
63260;DHT22;49390;51.380;0.098;2023-07-13T08:01:23;22.80;89.40
63260;DHT22;49390;51.380;0.098;2023-07-13T08:03:54;22.60;89.60
63260;DHT22;49390;51.380;0.098;2023-07-13T08:06:25;22.50;89.80
63260;DHT22;49390;51.380;0.098;2023-07-13T08:08:56;22.30;90.00
63260;DHT22;49390;51.380;0.098;2023-07-13T08:11:24;22.10;90.40
63260;DHT22;49390;51.380;0.098;2023-07-13T08:13:55;21.90;91.00
63260;DHT22;49390;51.380;0.098;2023-07-13T08:16:23;21.70;91.60
63260;DHT22;49390;51.380;0.098;2023-07-13T08:18:52;21.50;92.40
63260;DHT22;49390;51.380;0.098;2023-07-13T08:21:20;21.40;93.20
63260;DHT22;49390;51.380;0.098;2023-07-13T08:23:48;21.40;93.70
63260;DHT22;49390;51.380;0.098;2023-07-13T08:26:16;21.30;94.00
63260;DHT22;49390;51.380;0.098;2023-07-13T08:28:45;21.30;94.30
63260;DHT22;49390;51.380;0.098;2023-07-13T08:31:13;21.20;94.70
63260;DHT22;49390;51.380;0.098;2023-07-13T08:33:45;21.20;95.00
63260;DHT22;49390;51.380;0.098;2023-07-13T08:36:13;21.10;95.50
63260;DHT22;49390;51.380;0.098;2023-07-13T08:38:41;21.10;95.70
63260;DHT22;49390;51.380;0.098;2023-07-13T08:41:16;21.10;96.10
63260;DHT22;49390;51.380;0.098;2023-07-13T08:43:49;21.10;96.50
63260;DHT22;49390;51.380;0.098;2023-07-13T08:46:36;21.10;96.50
63260;DHT22;49390;51.380;0.098;2023-07-13T08:49:13;21.20;95.90
63260;DHT22;49390;51.380;0.098;2023-07-13T08:51:45;21.20;96.00
63260;DHT22;49390;51.380;0.098;2023-07-13T08:54:30;21.30;95.60
63260;DHT22;49390;51.380;0.098;2023-07-13T08:59:49;21.50;95.10
63260;DHT22;49390;51.380;0.098;2023-07-13T09:02:54;21.60;94.80
63260;DHT22;49390;51.380;0.098;2023-07-13T09:05:28;21.90;94.20
63260;DHT22;49390;51.380;0.098;2023-07-13T09:10:41;22.40;92.60
63260;DHT22;49390;51.380;0.098;2023-07-13T09:16:04;23.00;90.50
63260;DHT22;49390;51.380;0.098;2023-07-13T09:18:37;23.30;88.20
63260;DHT22;49390;51.380;0.098;2023-07-13T09:21:13;23.70;85.40
63260;DHT22;49390;51.380;0.098;2023-07-13T09:23:44;24.00;82.90
63260;DHT22;49390;51.380;0.098;2023-07-13T09:26:20;24.20;80.70
63260;DHT22;49390;51.380;0.098;2023-07-13T09:29:16;24.30;79.00
63260;DHT22;49390;51.380;0.098;2023-07-13T09:31:44;24.30;77.90
63260;DHT22;49390;51.380;0.098;2023-07-13T09:34:14;24.40;77.60
63260;DHT22;49390;51.380;0.098;2023-07-13T09:36:42;24.50;76.70
63260;DHT22;49390;51.380;0.098;2023-07-13T09:39:28;24.60;76.10
63260;DHT22;49390;51.380;0.098;2023-07-13T09:44:37;24.70;73.20
63260;DHT22;49390;51.380;0.098;2023-07-13T09:47:24;24.60;73.70
63260;DHT22;49390;51.380;0.098;2023-07-13T09:50:03;24.60;72.30
63260;DHT22;49390;51.380;0.098;2023-07-13T09:52:44;24.60;72.20
63260;DHT22;49390;51.380;0.098;2023-07-13T09:55:40;24.50;72.40
63260;DHT22;49390;51.380;0.098;2023-07-13T09:58:17;24.40;71.80
63260;DHT22;49390;51.380;0.098;2023-07-13T10:00:59;24.30;71.20
63260;DHT22;49390;51.380;0.098;2023-07-13T10:03:34;24.20;71.10
63260;DHT22;49390;51.380;0.098;2023-07-13T10:06:17;24.30;71.00
63260;DHT22;49390;51.380;0.098;2023-07-13T10:08:47;24.40;69.60
63260;DHT22;49390;51.380;0.098;2023-07-13T10:11:22;24.40;68.80
63260;DHT22;49390;51.380;0.098;2023-07-13T10:13:54;24.40;68.50
63260;DHT22;49390;51.380;0.098;2023-07-13T10:16:25;24.50;68.40
63260;DHT22;49390;51.380;0.098;2023-07-13T10:19:00;24.50;69.10
63260;DHT22;49390;51.380;0.098;2023-07-13T10:21:43;24.30;68.60
63260;DHT22;49390;51.380;0.098;2023-07-13T10:24:21;24.20;69.10
63260;DHT22;49390;51.380;0.098;2023-07-13T10:26:56;24.00;68.60
63260;DHT22;49390;51.380;0.098;2023-07-13T10:29:27;23.80;68.10
63260;DHT22;49390;51.380;0.098;2023-07-13T10:31:57;23.70;68.20
63260;DHT22;49390;51.380;0.098;2023-07-13T10:34:25;23.70;68.40
63260;DHT22;49390;51.380;0.098;2023-07-13T10:36:54;23.70;68.40
63260;DHT22;49390;51.380;0.098;2023-07-13T10:39:26;23.70;68.30
63260;DHT22;49390;51.380;0.098;2023-07-13T10:42:04;23.60;68.10
63260;DHT22;49390;51.380;0.098;2023-07-13T10:44:33;23.50;68.10
63260;DHT22;49390;51.380;0.098;2023-07-13T10:47:07;23.50;68.60
63260;DHT22;49390;51.380;0.098;2023-07-13T10:49:36;23.40;68.90
63260;DHT22;49390;51.380;0.098;2023-07-13T10:52:05;23.30;69.00
63260;DHT22;49390;51.380;0.098;2023-07-13T10:54:34;23.10;69.50
63260;DHT22;49390;51.380;0.098;2023-07-13T10:57:21;23.00;70.00
63260;DHT22;49390;51.380;0.098;2023-07-13T11:02:42;22.60;73.10
63260;DHT22;49390;51.380;0.098;2023-07-13T11:05:32;22.50;74.80
63260;DHT22;49390;51.380;0.098;2023-07-13T11:08:20;22.60;76.40
63260;DHT22;49390;51.380;0.098;2023-07-13T11:10:55;22.90;76.70
63260;DHT22;49390;51.380;0.098;2023-07-13T11:19:07;22.90;75.00
63260;DHT22;49390;51.380;0.098;2023-07-13T11:25:00;22.80;74.90
63260;DHT22;49390;51.380;0.098;2023-07-13T11:27:41;22.70;75.10
63260;DHT22;49390;51.380;0.098;2023-07-13T11:30:24;22.60;75.50
63260;DHT22;49390;51.380;0.098;2023-07-13T11:36:13;22.60;75.50
63260;DHT22;49390;51.380;0.098;2023-07-13T11:38:51;22.70;74.80
63260;DHT22;49390;51.380;0.098;2023-07-13T11:42:10;23.00;73.70
63260;DHT22;49390;51.380;0.098;2023-07-13T11:44:20;23.20;72.30
63260;DHT22;49390;51.380;0.098;2023-07-13T11:46:57;23.20;71.50
63260;DHT22;49390;51.380;0.098;2023-07-13T11:49:31;23.20;71.20
63260;DHT22;49390;51.380;0.098;2023-07-13T11:52:00;23.10;71.20
63260;DHT22;49390;51.380;0.098;2023-07-13T11:54:33;23.10;71.40
63260;DHT22;49390;51.380;0.098;2023-07-13T11:57:23;23.00;71.60
63260;DHT22;49390;51.380;0.098;2023-07-13T12:01:31;22.90;71.20
63260;DHT22;49390;51.380;0.098;2023-07-13T12:04:04;22.90;71.80
63260;DHT22;49390;51.380;0.098;2023-07-13T12:06:35;22.80;72.40
63260;DHT22;49390;51.380;0.098;2023-07-13T12:09:13;22.80;74.60
63260;DHT22;49390;51.380;0.098;2023-07-13T12:11:43;22.60;77.60
63260;DHT22;49390;51.380;0.098;2023-07-13T12:14:16;22.40;81.80
63260;DHT22;49390;51.380;0.098;2023-07-13T12:16:45;22.10;90.20
63260;DHT22;49390;51.380;0.098;2023-07-13T12:19:22;21.80;94.70
63260;DHT22;49390;51.380;0.098;2023-07-13T12:21:55;21.40;99.70
63260;DHT22;49390;51.380;0.098;2023-07-13T12:24:25;21.10;99.90
63260;DHT22;49390;51.380;0.098;2023-07-13T12:26:59;20.90;99.90
63260;DHT22;49390;51.380;0.098;2023-07-13T12:29:29;20.90;99.90
63260;DHT22;49390;51.380;0.098;2023-07-13T12:31:57;20.90;99.90
63260;DHT22;49390;51.380;0.098;2023-07-13T12:34:26;20.90;99.90
63260;DHT22;49390;51.380;0.098;2023-07-13T12:37:02;21.00;99.90
63260;DHT22;49390;51.380;0.098;2023-07-13T12:39:38;21.20;99.90
63260;DHT22;49390;51.380;0.098;2023-07-13T12:44:45;21.40;99.90
63260;DHT22;49390;51.380;0.098;2023-07-13T12:47:16;21.40;99.90
63260;DHT22;49390;51.380;0.098;2023-07-13T12:49:55;21.50;99.90
63260;DHT22;49390;51.380;0.098;2023-07-13T12:52:29;21.50;99.90
63260;DHT22;49390;51.380;0.098;2023-07-13T12:57:39;21.60;99.90
63260;DHT22;49390;51.380;0.098;2023-07-13T13:00:30;21.60;99.90
63260;DHT22;49390;51.380;0.098;2023-07-13T13:03:18;21.60;99.90
63260;DHT22;49390;51.380;0.098;2023-07-13T13:06:06;21.60;99.90
63260;DHT22;49390;51.380;0.098;2023-07-13T13:08:35;21.70;99.90
63260;DHT22;49390;51.380;0.098;2023-07-13T13:11:05;21.70;99.90
63260;DHT22;49390;51.380;0.098;2023-07-13T13:13:33;21.70;99.90
63260;DHT22;49390;51.380;0.098;2023-07-13T13:16:31;21.70;99.90
63260;DHT22;49390;51.380;0.098;2023-07-13T13:19:17;21.70;99.90
63260;DHT22;49390;51.380;0.098;2023-07-13T13:21:46;21.80;99.90
63260;DHT22;49390;51.380;0.098;2023-07-13T13:24:16;21.80;99.90
63260;DHT22;49390;51.380;0.098;2023-07-13T13:26:45;21.70;99.90
63260;DHT22;49390;51.380;0.098;2023-07-13T13:29:17;21.70;99.90
63260;DHT22;49390;51.380;0.098;2023-07-13T13:31:46;21.70;99.90
63260;DHT22;49390;51.380;0.098;2023-07-13T13:34:16;21.80;99.90
63260;DHT22;49390;51.380;0.098;2023-07-13T13:36:47;21.80;99.90
63260;DHT22;49390;51.380;0.098;2023-07-13T13:41:53;21.90;99.90
63260;DHT22;49390;51.380;0.098;2023-07-13T13:44:22;22.10;99.90
63260;DHT22;49390;51.380;0.098;2023-07-13T13:46:54;22.30;99.90
63260;DHT22;49390;51.380;0.098;2023-07-13T13:49:23;22.50;99.90
63260;DHT22;49390;51.380;0.098;2023-07-13T13:51:53;22.60;99.90
63260;DHT22;49390;51.380;0.098;2023-07-13T13:54:22;22.60;99.90
63260;DHT22;49390;51.380;0.098;2023-07-13T13:56:52;22.60;99.90
63260;DHT22;49390;51.380;0.098;2023-07-13T13:59:20;22.50;99.90
63260;DHT22;49390;51.380;0.098;2023-07-13T14:01:49;22.40;99.90
63260;DHT22;49390;51.380;0.098;2023-07-13T14:04:20;22.30;99.90
63260;DHT22;49390;51.380;0.098;2023-07-13T14:06:49;22.10;99.90
63260;DHT22;49390;51.380;0.098;2023-07-13T14:09:18;22.00;99.90
63260;DHT22;49390;51.380;0.098;2023-07-13T14:11:48;21.90;99.90
63260;DHT22;49390;51.380;0.098;2023-07-13T14:14:21;21.90;99.90
63260;DHT22;49390;51.380;0.098;2023-07-13T14:16:51;21.80;99.90
63260;DHT22;49390;51.380;0.098;2023-07-13T14:19:25;21.70;99.90
63260;DHT22;49390;51.380;0.098;2023-07-13T14:21:56;21.70;99.90
63260;DHT22;49390;51.380;0.098;2023-07-13T14:24:23;21.60;99.90
63260;DHT22;49390;51.380;0.098;2023-07-13T14:26:52;21.60;99.90
63260;DHT22;49390;51.380;0.098;2023-07-13T14:29:20;21.60;99.90
63260;DHT22;49390;51.380;0.098;2023-07-13T14:31:54;21.60;99.90
63260;DHT22;49390;51.380;0.098;2023-07-13T14:34:24;21.60;99.90
63260;DHT22;49390;51.380;0.098;2023-07-13T14:36:52;21.70;99.90
63260;DHT22;49390;51.380;0.098;2023-07-13T14:39:23;21.80;99.90
63260;DHT22;49390;51.380;0.098;2023-07-13T14:41:53;22.00;99.90
63260;DHT22;49390;51.380;0.098;2023-07-13T14:44:27;22.30;98.20
63260;DHT22;49390;51.380;0.098;2023-07-13T14:46:59;22.50;96.80
63260;DHT22;49390;51.380;0.098;2023-07-13T14:49:34;22.80;94.90
63260;DHT22;49390;51.380;0.098;2023-07-13T14:52:18;23.00;93.20
63260;DHT22;49390;51.380;0.098;2023-07-13T14:54:47;23.10;92.10
63260;DHT22;49390;51.380;0.098;2023-07-13T14:57:18;23.20;90.90
63260;DHT22;49390;51.380;0.098;2023-07-13T14:59:47;23.30;89.80
63260;DHT22;49390;51.380;0.098;2023-07-13T15:02:32;23.30;88.00
63260;DHT22;49390;51.380;0.098;2023-07-13T15:05:01;23.40;85.00
63260;DHT22;49390;51.380;0.098;2023-07-13T15:07:29;23.50;84.60
63260;DHT22;49390;51.380;0.098;2023-07-13T15:10:01;23.60;83.60
63260;DHT22;49390;51.380;0.098;2023-07-13T15:12:30;23.60;79.50
63260;DHT22;49390;51.380;0.098;2023-07-13T15:14:57;23.50;77.80
63260;DHT22;49390;51.380;0.098;2023-07-13T15:17:38;23.30;76.70
63260;DHT22;49390;51.380;0.098;2023-07-13T15:22:54;23.30;76.40
63260;DHT22;49390;51.380;0.098;2023-07-13T15:25:26;23.50;76.20
63260;DHT22;49390;51.380;0.098;2023-07-13T15:27:55;23.60;73.80
63260;DHT22;49390;51.380;0.098;2023-07-13T15:30:30;23.80;72.80
63260;DHT22;49390;51.380;0.098;2023-07-13T15:33:05;23.90;71.30
63260;DHT22;49390;51.380;0.098;2023-07-13T15:35:37;24.00;70.00
63260;DHT22;49390;51.380;0.098;2023-07-13T15:38:17;24.10;69.20
63260;DHT22;49390;51.380;0.098;2023-07-13T15:41:52;24.20;68.50
63260;DHT22;49390;51.380;0.098;2023-07-13T15:44:29;24.20;68.70
63260;DHT22;49390;51.380;0.098;2023-07-13T15:46:58;24.00;68.60
63260;DHT22;49390;51.380;0.098;2023-07-13T15:49:28;24.00;68.60
63260;DHT22;49390;51.380;0.098;2023-07-13T15:54:18;23.80;67.70
63260;DHT22;49390;51.380;0.098;2023-07-13T15:56:52;23.70;68.30
63260;DHT22;49390;51.380;0.098;2023-07-13T15:59:20;23.50;68.50
63260;DHT22;49390;51.380;0.098;2023-07-13T16:01:48;23.30;68.90
63260;DHT22;49390;51.380;0.098;2023-07-13T16:04:17;23.10;69.40
63260;DHT22;49390;51.380;0.098;2023-07-13T16:06:48;23.00;69.80
63260;DHT22;49390;51.380;0.098;2023-07-13T16:09:20;22.80;70.10
63260;DHT22;49390;51.380;0.098;2023-07-13T16:11:50;22.80;70.60
63260;DHT22;49390;51.380;0.098;2023-07-13T16:14:20;22.70;71.10
63260;DHT22;49390;51.380;0.098;2023-07-13T16:16:52;22.70;71.20
63260;DHT22;49390;51.380;0.098;2023-07-13T16:19:24;22.70;71.10
63260;DHT22;49390;51.380;0.098;2023-07-13T16:21:57;22.70;71.30
63260;DHT22;49390;51.380;0.098;2023-07-13T16:24:30;22.60;71.30
63260;DHT22;49390;51.380;0.098;2023-07-13T16:26:59;22.60;71.50
63260;DHT22;49390;51.380;0.098;2023-07-13T16:29:31;22.50;71.50
63260;DHT22;49390;51.380;0.098;2023-07-13T16:34:31;22.40;72.30
63260;DHT22;49390;51.380;0.098;2023-07-13T16:37:05;22.30;72.60
63260;DHT22;49390;51.380;0.098;2023-07-13T16:39:48;22.30;72.90
63260;DHT22;49390;51.380;0.098;2023-07-13T16:42:19;22.20;73.30
63260;DHT22;49390;51.380;0.098;2023-07-13T16:44:47;22.20;73.50